createdAt,value
2019-02-09T00:00:08.915Z,88.51
2019-02-09T00:01:08.894Z,88.41
2019-02-09T00:02:08.969Z,88.78
2019-02-09T00:03:08.897Z,89.95
2019-02-09T00:04:08.868Z,89.95
2019-02-09T00:05:08.855Z,89.65
2019-02-09T00:06:08.904Z,89.03
2019-02-09T00:07:08.838Z,89.03
2019-02-09T00:08:08.821Z,89.23
2019-02-09T00:09:08.889Z,89.85
2019-02-09T00:10:08.807Z,89.95
2019-02-09T00:11:08.813Z,89.95
2019-02-09T00:12:09.716Z,90.26
2019-02-09T00:13:08.771Z,89.85
2019-02-09T00:14:08.762Z,90.37
2019-02-09T00:15:08.748Z,90.37
2019-02-09T00:16:08.749Z,90.57
2019-02-09T00:17:08.730Z,90.26
2019-02-09T00:18:08.715Z,90.26
2019-02-09T00:19:08.695Z,91.19
2019-02-09T00:20:08.701Z,90.88
2019-02-09T00:21:08.681Z,91.44
2019-02-09T00:22:08.680Z,91.03
2019-02-09T00:23:08.708Z,91.03
2019-02-09T00:24:08.652Z,91.03
2019-02-09T00:25:08.649Z,90.99
2019-02-09T00:26:08.629Z,90.88
2019-02-09T00:27:08.623Z,91.13
2019-02-09T00:28:08.622Z,91.54
2019-02-09T00:29:08.622Z,91.09
2019-02-09T00:30:08.598Z,90.99
2019-02-09T00:31:08.567Z,91.13
2019-02-09T00:32:08.585Z,91.81
2019-02-09T00:33:08.555Z,91.50
2019-02-09T00:34:08.562Z,91.19
2019-02-09T00:35:08.536Z,91.03
2019-02-09T00:36:08.541Z,91.24
2019-02-09T00:37:08.531Z,91.09
2019-02-09T00:38:08.499Z,91.40
2019-02-09T00:39:08.495Z,91.24
2019-02-09T00:40:08.561Z,91.24
2019-02-09T00:41:08.482Z,91.54
2019-02-09T00:42:08.517Z,91.34
2019-02-09T00:43:08.455Z,91.19
2019-02-09T00:44:08.440Z,91.13
2019-02-09T00:45:08.434Z,91.44
2019-02-09T00:46:08.412Z,90.61
2019-02-09T00:47:08.404Z,91.44
2019-02-09T00:48:08.404Z,90.57
2019-02-09T00:49:08.375Z,91.19
2019-02-09T00:50:08.386Z,91.03
2019-02-09T00:51:08.369Z,90.92
2019-02-09T00:52:08.371Z,90.37
2019-02-09T00:53:08.347Z,91.03
2019-02-09T00:54:08.322Z,90.61
2019-02-09T00:55:08.317Z,91.44
2019-02-09T00:56:08.367Z,91.13
2019-02-09T00:57:08.342Z,90.51
2019-02-09T00:58:08.303Z,91.24
2019-02-09T00:59:08.276Z,91.03
2019-02-09T01:00:08.268Z,91.24
2019-02-09T01:01:08.239Z,91.13
2019-02-09T01:02:08.256Z,90.82
2019-02-09T01:03:08.239Z,90.61
2019-02-09T01:04:08.269Z,91.03
2019-02-09T01:05:08.214Z,91.03
2019-02-09T01:06:08.190Z,91.13
2019-02-09T01:07:08.201Z,91.54
2019-02-09T01:08:08.297Z,91.03
2019-02-09T01:09:08.159Z,91.03
2019-02-09T01:10:08.153Z,90.61
2019-02-09T01:11:08.143Z,90.57
2019-02-09T01:12:08.135Z,90.26
2019-02-09T01:13:08.119Z,90.10
2019-02-09T01:14:08.126Z,90.26
2019-02-09T01:15:08.118Z,90.37
2019-02-09T01:16:08.085Z,90.00
2019-02-09T01:17:08.081Z,90.41
2019-02-09T01:18:08.088Z,90.20
2019-02-09T01:19:08.077Z,90.16
2019-02-09T01:20:08.053Z,89.95
2019-02-09T01:21:08.023Z,90.82
2019-02-09T01:22:08.020Z,90.92
2019-02-09T01:23:08.015Z,90.82
2019-02-09T01:24:08.022Z,90.72
2019-02-09T01:25:07.980Z,90.82
2019-02-09T01:26:07.968Z,90.82
2019-02-09T01:27:07.958Z,90.61
2019-02-09T01:28:08.008Z,90.00
2019-02-09T01:29:07.938Z,89.75
2019-02-09T01:30:07.935Z,90.26
2019-02-09T01:31:07.932Z,90.20
2019-02-09T01:32:07.926Z,89.23
2019-02-09T01:33:07.939Z,89.89
2019-02-09T01:34:07.886Z,89.44
2019-02-09T01:35:07.892Z,90.06
2019-02-09T01:36:07.894Z,89.89
2019-02-09T01:37:07.863Z,89.89
2019-02-09T01:38:07.866Z,89.79
2019-02-09T01:39:07.822Z,90.00
2019-02-09T01:40:07.828Z,89.85
2019-02-09T01:41:07.807Z,89.85
2019-02-09T01:42:07.825Z,90.41
2019-02-09T01:43:07.805Z,90.26
2019-02-09T01:44:07.794Z,89.79
2019-02-09T01:45:07.761Z,89.95
2019-02-09T01:46:07.764Z,89.34
2019-02-09T01:47:07.746Z,89.03
2019-02-09T01:48:07.771Z,89.75
2019-02-09T01:49:07.770Z,89.44
2019-02-09T01:50:07.727Z,89.13
2019-02-09T01:51:07.694Z,89.13
2019-02-09T01:52:07.689Z,88.72
2019-02-09T01:53:07.688Z,88.20
2019-02-09T01:54:07.681Z,88.10
2019-02-09T01:55:07.651Z,88.72
2019-02-09T01:56:07.646Z,88.17
2019-02-09T01:57:07.628Z,88.51
2019-02-09T01:58:07.641Z,89.23
2019-02-09T01:59:07.639Z,89.03
2019-02-09T02:00:10.644Z,89.95
2019-02-09T02:01:07.588Z,88.92
2019-02-09T02:02:07.578Z,89.44
2019-02-09T02:03:07.595Z,89.54
2019-02-09T02:04:07.562Z,89.75
2019-02-09T02:05:07.546Z,89.75
2019-02-09T02:06:07.688Z,89.75
2019-02-09T02:07:07.596Z,89.95
2019-02-09T02:08:07.599Z,89.75
2019-02-09T02:09:07.511Z,90.06
2019-02-09T02:10:07.505Z,89.75
2019-02-09T02:11:07.478Z,89.85
2019-02-09T02:12:07.502Z,90.51
2019-02-09T02:13:07.449Z,90.16
2019-02-09T02:14:07.466Z,90.06
2019-02-09T02:15:07.433Z,89.75
2019-02-09T02:16:07.437Z,90.26
2019-02-09T02:17:07.411Z,90.57
2019-02-09T02:18:07.403Z,90.61
2019-02-09T02:19:07.399Z,90.99
2019-02-09T02:20:07.400Z,91.03
2019-02-09T02:21:07.372Z,91.34
2019-02-09T02:22:07.357Z,91.13
2019-02-09T02:23:07.355Z,91.34
2019-02-09T02:25:16.142Z,90.82
2019-02-09T02:26:16.035Z,91.09
2019-02-09T02:27:16.134Z,90.72
2019-02-09T02:28:16.018Z,90.20
2019-02-09T02:29:16.085Z,90.16
2019-02-09T02:30:22.665Z,90.10
2019-02-09T02:31:17.004Z,90.51
2019-02-09T02:32:15.971Z,90.61
2019-02-09T02:33:16.075Z,90.31
2019-02-09T02:34:16.007Z,90.51
2019-02-09T02:35:15.983Z,90.61
2019-02-09T02:36:15.949Z,90.26
2019-02-09T02:37:15.945Z,90.31
2019-02-09T02:38:15.920Z,89.65
2019-02-09T02:39:15.985Z,89.85
2019-02-09T02:40:15.892Z,89.75
2019-02-09T02:41:15.901Z,89.03
2019-02-09T02:42:15.885Z,88.62
2019-02-09T02:43:15.858Z,88.51
2019-02-09T02:44:15.866Z,88.31
2019-02-09T02:45:15.841Z,88.62
2019-02-09T02:46:15.827Z,88.20
2019-02-09T02:47:15.827Z,88.31
2019-02-09T02:48:15.799Z,87.96
2019-02-09T02:49:15.827Z,88.20
2019-02-09T02:50:15.776Z,88.62
2019-02-09T02:51:15.771Z,88.72
2019-02-09T02:52:15.755Z,89.13
2019-02-09T02:53:16.603Z,89.03
2019-02-09T02:54:15.752Z,88.41
2019-02-09T02:55:15.731Z,88.62
2019-02-09T02:56:15.717Z,88.82
2019-02-09T02:57:15.705Z,87.85
2019-02-09T02:58:15.693Z,87.96
2019-02-09T02:59:15.698Z,87.99
2019-02-09T03:00:15.663Z,88.10
2019-02-09T03:01:15.663Z,89.34
2019-02-09T03:02:15.653Z,88.57
2019-02-09T03:03:15.648Z,88.41
2019-02-09T03:04:15.643Z,88.06
2019-02-09T03:05:15.616Z,88.20
2019-02-09T03:06:15.607Z,88.37
2019-02-09T03:07:15.592Z,88.20
2019-02-09T03:08:15.579Z,88.31
2019-02-09T03:09:15.590Z,88.51
2019-02-09T03:10:15.558Z,88.72
2019-02-09T03:11:15.557Z,88.47
2019-02-09T03:12:15.560Z,88.62
2019-02-09T03:13:15.657Z,88.62
2019-02-09T03:14:15.534Z,88.68
2019-02-09T03:15:15.505Z,87.54
2019-02-09T03:16:15.494Z,87.54
2019-02-09T03:17:15.525Z,87.85
2019-02-09T03:18:15.492Z,87.44
2019-02-09T03:19:15.817Z,87.75
2019-02-09T03:20:15.481Z,88.20
2019-02-09T03:21:16.279Z,88.10
2019-02-09T03:22:15.464Z,88.62
2019-02-09T03:23:15.493Z,89.34
2019-02-09T03:24:15.467Z,88.92
2019-02-09T03:25:15.462Z,88.92
2019-02-09T03:26:15.381Z,89.23
2019-02-09T03:27:15.485Z,89.13
2019-02-09T03:28:15.385Z,89.23
2019-02-09T03:29:16.376Z,89.34
2019-02-09T03:30:15.345Z,89.13
2019-02-09T03:31:15.344Z,89.65
2019-02-09T03:32:15.325Z,89.44
2019-02-09T03:33:15.362Z,89.95
2019-02-09T03:34:15.317Z,89.44
2019-02-09T03:35:16.294Z,89.75
2019-02-09T03:36:15.271Z,89.69
2019-02-09T03:37:15.280Z,89.34
2019-02-09T03:38:15.261Z,89.13
2019-02-09T03:39:15.328Z,88.51
2019-02-09T03:40:15.237Z,88.82
2019-02-09T03:41:15.314Z,89.13
2019-02-09T03:42:15.203Z,89.95
2019-02-09T03:43:15.223Z,89.54
2019-02-09T03:44:15.210Z,89.07
2019-02-09T03:45:15.240Z,88.92
2019-02-09T03:46:15.161Z,89.13
2019-02-09T03:47:15.261Z,89.28
2019-02-09T03:48:15.161Z,89.23
2019-02-09T03:49:15.188Z,89.54
2019-02-09T03:50:15.114Z,89.65
2019-02-09T03:51:15.184Z,89.95
2019-02-09T03:52:15.093Z,89.89
2019-02-09T03:53:15.197Z,90.26
2019-02-09T03:54:15.110Z,90.41
2019-02-09T03:55:15.112Z,90.00
2019-02-09T03:56:15.084Z,89.85
2019-02-09T03:57:15.151Z,89.85
2019-02-09T03:58:15.035Z,89.13
2019-02-09T03:59:15.125Z,89.03
2019-02-09T04:00:15.028Z,89.23
2019-02-09T04:01:15.037Z,89.03
2019-02-09T04:02:15.028Z,89.85
2019-02-09T04:03:15.102Z,89.13
2019-02-09T04:04:14.975Z,89.85
2019-02-09T04:05:15.002Z,89.95
2019-02-09T04:06:14.939Z,89.34
2019-02-09T04:07:15.061Z,89.85
2019-02-09T04:08:14.929Z,90.06
2019-02-09T04:09:15.008Z,89.03
2019-02-09T04:10:14.934Z,89.54
2019-02-09T04:11:14.916Z,89.23
2019-02-09T04:12:14.878Z,89.34
2019-02-09T04:13:14.939Z,88.72
2019-02-09T04:14:14.854Z,88.82
2019-02-09T04:15:14.956Z,89.03
2019-02-09T04:16:14.858Z,88.96
2019-02-09T04:17:16.830Z,88.92
2019-02-09T04:18:14.812Z,88.92
2019-02-09T04:19:15.816Z,90.16
2019-02-09T04:20:14.802Z,89.58
2019-02-09T04:21:15.792Z,89.89
2019-02-09T04:22:14.762Z,90.10
2019-02-09T04:23:14.782Z,90.20
2019-02-09T04:24:14.751Z,90.20
2019-02-09T04:25:14.834Z,90.20
2019-02-09T04:26:14.728Z,89.79
2019-02-09T04:27:14.805Z,90.10
2019-02-09T04:28:14.698Z,89.89
2019-02-09T04:29:14.725Z,90.04
2019-02-09T04:30:14.709Z,90.10
2019-02-09T04:31:14.728Z,90.10
2019-02-09T04:32:14.674Z,90.72
2019-02-09T04:33:14.743Z,91.24
2019-02-09T04:34:14.640Z,91.03
2019-02-09T04:35:14.687Z,91.89
2019-02-09T04:36:14.608Z,91.13
2019-02-09T04:37:14.668Z,92.37
2019-02-09T04:38:14.585Z,91.28
2019-02-09T04:39:14.702Z,91.34
2019-02-09T04:40:14.580Z,91.13
2019-02-09T04:41:14.596Z,92.10
2019-02-09T04:42:14.557Z,92.51
2019-02-09T04:43:14.615Z,92.27
2019-02-09T04:44:14.519Z,91.54
2019-02-09T04:45:14.572Z,92.10
2019-02-09T04:46:14.500Z,91.85
2019-02-09T04:47:14.538Z,91.79
2019-02-09T04:48:14.488Z,91.44
2019-02-09T04:49:14.554Z,91.24
2019-02-09T04:50:14.471Z,91.07
2019-02-09T04:51:14.459Z,91.13
2019-02-09T04:52:14.440Z,91.54
2019-02-09T04:53:14.472Z,91.13
2019-02-09T04:54:14.412Z,91.48
2019-02-09T04:55:14.525Z,90.92
2019-02-09T04:56:14.387Z,91.03
2019-02-09T04:57:14.406Z,91.24
2019-02-09T04:58:14.368Z,89.89
2019-02-09T04:59:14.411Z,90.20
2019-02-09T05:00:14.356Z,90.00
2019-02-09T05:01:14.436Z,90.10
2019-02-09T05:02:14.323Z,89.79
2019-02-09T05:03:15.362Z,91.03
2019-02-09T05:04:14.304Z,90.88
2019-02-09T05:05:15.494Z,90.88
2019-02-09T05:06:14.276Z,91.34
2019-02-09T05:07:14.364Z,91.24
2019-02-09T05:08:14.269Z,92.27
2019-02-09T05:09:14.312Z,92.06
2019-02-09T05:10:14.257Z,92.16
2019-02-09T05:11:14.291Z,91.85
2019-02-09T05:12:14.223Z,92.47
2019-02-09T05:13:14.310Z,92.06
2019-02-09T05:14:14.191Z,92.37
2019-02-09T05:15:14.263Z,91.44
2019-02-09T05:16:14.173Z,91.13
2019-02-09T05:17:14.228Z,91.48
2019-02-09T05:18:14.176Z,91.48
2019-02-09T05:19:14.244Z,91.28
2019-02-09T05:20:14.169Z,90.97
2019-02-09T05:21:14.160Z,91.38
2019-02-09T05:22:14.109Z,91.28
2019-02-09T05:23:14.163Z,90.86
2019-02-09T05:24:14.079Z,90.76
2019-02-09T05:25:14.142Z,90.97
2019-02-09T05:26:14.064Z,91.28
2019-02-09T05:27:14.091Z,91.17
2019-02-09T05:28:14.041Z,91.17
2019-02-09T05:29:14.105Z,90.86
2019-02-09T05:30:14.081Z,91.17
2019-02-09T05:31:22.678Z,91.07
2019-02-09T05:32:14.991Z,91.11
2019-02-09T05:33:14.039Z,90.97
2019-02-09T05:34:13.970Z,92.14
2019-02-09T05:35:14.073Z,92.35
2019-02-09T05:36:13.988Z,92.14
2019-02-09T05:37:13.990Z,91.73
2019-02-09T05:38:13.973Z,91.94
2019-02-09T05:39:13.978Z,91.42
2019-02-09T05:40:13.912Z,91.11
2019-02-09T05:41:14.016Z,92.04
2019-02-09T05:42:13.878Z,92.35
2019-02-09T05:43:13.915Z,91.63
2019-02-09T05:44:13.870Z,91.52
2019-02-09T05:45:13.912Z,91.98
2019-02-09T05:46:13.853Z,91.46
2019-02-09T05:47:13.937Z,90.91
2019-02-09T05:48:13.826Z,91.56
2019-02-09T05:49:15.824Z,91.56
2019-02-09T05:50:13.794Z,91.83
2019-02-09T05:51:15.803Z,91.16
2019-02-09T05:52:13.767Z,91.42
2019-02-09T05:53:15.814Z,90.91
2019-02-09T05:54:13.751Z,90.80
2019-02-09T05:55:13.800Z,91.22
2019-02-09T05:56:13.740Z,91.11
2019-02-09T05:57:13.789Z,89.98
2019-02-09T05:58:13.707Z,90.19
2019-02-09T05:59:13.819Z,89.98
2019-02-09T06:00:13.684Z,89.77
2019-02-09T06:01:13.740Z,89.67
2019-02-09T06:02:13.662Z,89.56
2019-02-09T06:03:13.720Z,90.19
2019-02-09T06:04:13.642Z,90.19
2019-02-09T06:05:13.747Z,89.77
2019-02-09T06:06:13.625Z,89.25
2019-02-09T06:07:13.647Z,88.80
2019-02-09T06:08:13.599Z,88.49
2019-02-09T06:09:13.660Z,87.77
2019-02-09T06:10:13.567Z,87.66
2019-02-09T06:11:13.616Z,87.66
2019-02-09T06:12:13.545Z,87.77
2019-02-09T06:13:13.588Z,86.70
2019-02-09T06:14:13.531Z,86.70
2019-02-09T06:15:13.599Z,87.93
2019-02-09T06:16:13.521Z,87.56
2019-02-09T06:17:13.527Z,87.66
2019-02-09T06:18:13.483Z,87.46
2019-02-09T06:19:13.483Z,87.98
2019-02-09T06:20:13.477Z,88.08
2019-02-09T06:21:13.588Z,87.46
2019-02-09T06:22:13.453Z,87.98
2019-02-09T06:23:13.464Z,87.66
2019-02-09T06:24:13.421Z,87.66
2019-02-09T06:25:13.471Z,87.66
2019-02-09T06:26:13.424Z,87.66
2019-02-09T06:27:13.491Z,87.15
2019-02-09T06:28:13.374Z,86.74
2019-02-09T06:29:13.390Z,86.39
2019-02-09T06:30:13.364Z,86.60
2019-02-09T06:31:13.448Z,86.94
2019-02-09T06:32:13.344Z,87.56
2019-02-09T06:33:13.419Z,86.32
2019-02-09T06:34:13.314Z,86.60
2019-02-09T06:35:13.333Z,86.80
2019-02-09T06:36:13.305Z,86.63
2019-02-09T06:37:19.804Z,86.60
2019-02-09T06:38:13.260Z,86.80
2019-02-09T06:39:13.357Z,86.39
2019-02-09T06:40:13.247Z,86.80
2019-02-09T06:41:13.309Z,86.60
2019-02-09T06:42:13.218Z,86.60
2019-02-09T06:43:13.281Z,85.77
2019-02-09T06:44:13.201Z,86.39
2019-02-09T06:45:13.296Z,86.08
2019-02-09T06:46:13.196Z,86.08
2019-02-09T06:47:13.214Z,86.29
2019-02-09T06:48:13.192Z,86.08
2019-02-09T06:49:13.222Z,85.05
2019-02-09T06:50:13.131Z,86.24
2019-02-09T06:51:13.173Z,85.31
2019-02-09T06:52:13.105Z,86.24
2019-02-09T06:53:13.192Z,86.08
2019-02-09T06:54:13.084Z,86.15
2019-02-09T06:55:13.157Z,85.83
2019-02-09T06:56:13.078Z,84.91
2019-02-09T06:57:13.068Z,84.49
2019-02-09T06:58:13.045Z,84.49
2019-02-09T06:59:13.089Z,84.59
2019-02-09T07:00:13.032Z,84.49
2019-02-09T07:01:13.129Z,84.70
2019-02-09T07:02:12.993Z,84.49
2019-02-09T07:03:13.009Z,84.49
2019-02-09T07:04:12.983Z,84.49
2019-02-09T07:05:13.021Z,83.67
2019-02-09T07:06:12.983Z,84.59
2019-02-09T07:07:13.059Z,84.59
2019-02-09T07:08:12.978Z,84.49
2019-02-09T07:09:12.946Z,84.25
2019-02-09T07:10:12.917Z,84.25
2019-02-09T07:11:12.974Z,84.29
2019-02-09T07:12:12.904Z,83.53
2019-02-09T07:13:12.974Z,84.25
2019-02-09T07:14:12.885Z,83.63
2019-02-09T07:15:12.897Z,83.15
2019-02-09T07:16:12.852Z,83.01
2019-02-09T07:17:13.950Z,82.91
2019-02-09T07:18:12.815Z,83.32
2019-02-09T07:19:20.819Z,83.22
2019-02-09T07:20:12.796Z,82.81
2019-02-09T07:21:19.780Z,82.40
2019-02-09T07:22:12.817Z,83.63
2019-02-09T07:23:14.789Z,83.01
2019-02-09T07:24:12.748Z,83.22
2019-02-09T07:25:13.775Z,82.91
2019-02-09T07:26:12.731Z,82.50
2019-02-09T07:27:12.803Z,82.60
2019-02-09T07:28:12.712Z,82.50
2019-02-09T07:29:12.787Z,81.98
2019-02-09T07:30:12.682Z,81.88
2019-02-09T07:31:12.691Z,80.61
2019-02-09T07:32:12.677Z,80.61
2019-02-09T07:33:12.702Z,81.19
2019-02-09T07:34:12.641Z,80.40
2019-02-09T07:35:12.726Z,81.02
2019-02-09T07:36:12.618Z,80.51
2019-02-09T07:37:12.663Z,80.36
2019-02-09T07:38:12.596Z,79.85
2019-02-09T07:39:12.669Z,80.05
2019-02-09T07:40:12.580Z,80.30
2019-02-09T07:41:13.057Z,80.30
2019-02-09T07:42:12.567Z,79.85
2019-02-09T07:43:12.567Z,79.40
2019-02-09T07:44:12.552Z,78.06
2019-02-09T07:45:12.588Z,77.41
2019-02-09T07:46:12.512Z,77.41
2019-02-09T07:47:12.627Z,77.45
2019-02-09T07:48:12.490Z,78.61
2019-02-09T07:49:12.506Z,78.72
2019-02-09T07:50:12.471Z,78.86
2019-02-09T07:51:12.520Z,79.06
2019-02-09T07:52:12.494Z,78.82
2019-02-09T07:53:12.532Z,79.27
2019-02-09T07:54:12.423Z,78.34
2019-02-09T07:55:12.442Z,77.48
2019-02-09T07:56:12.401Z,76.86
2019-02-09T07:57:12.503Z,76.45
2019-02-09T07:58:12.391Z,76.83
2019-02-09T07:59:12.478Z,76.69
2019-02-09T08:00:12.356Z,74.80
2019-02-09T08:01:12.380Z,74.91
2019-02-09T08:02:12.366Z,74.60
2019-02-09T08:03:13.417Z,74.98
2019-02-09T08:04:12.311Z,73.71
2019-02-09T08:05:19.280Z,74.70
2019-02-09T08:06:12.294Z,74.84
2019-02-09T08:07:17.294Z,75.46
2019-02-09T08:08:12.262Z,75.29
2019-02-09T08:09:14.280Z,75.80
2019-02-09T08:10:12.306Z,74.67
2019-02-09T08:11:12.243Z,74.26
2019-02-09T08:12:12.230Z,74.15
2019-02-09T08:13:12.256Z,74.26
2019-02-09T08:14:12.202Z,74.46
2019-02-09T08:15:12.273Z,75.08
2019-02-09T08:16:12.189Z,74.36
2019-02-09T08:17:12.211Z,74.05
2019-02-09T08:18:12.162Z,74.57
2019-02-09T08:19:12.212Z,74.57
2019-02-09T08:20:12.126Z,74.40
2019-02-09T08:21:12.246Z,74.50
2019-02-09T08:22:12.115Z,75.12
2019-02-09T08:23:12.121Z,75.01
2019-02-09T08:24:12.106Z,74.36
2019-02-09T08:25:12.138Z,72.41
2019-02-09T08:26:12.065Z,71.69
2019-02-09T08:27:12.174Z,72.10
2019-02-09T08:28:12.057Z,71.55
2019-02-09T08:29:12.060Z,70.84
2019-02-09T08:30:12.021Z,69.74
2019-02-09T08:31:12.073Z,69.23
2019-02-09T08:32:13.044Z,68.17
2019-02-09T08:33:12.091Z,67.32
2019-02-09T08:34:11.972Z,67.52
2019-02-09T08:35:12.004Z,67.52
2019-02-09T08:36:11.951Z,66.95
2019-02-09T08:37:12.064Z,65.24
2019-02-09T08:38:11.925Z,66.57
2019-02-09T08:39:12.028Z,66.47
2019-02-09T08:40:11.906Z,66.37
2019-02-09T08:41:11.939Z,65.52
2019-02-09T08:42:11.900Z,66.54
2019-02-09T08:43:11.951Z,65.62
2019-02-09T08:44:11.860Z,66.44
2019-02-09T08:45:11.865Z,67.29
2019-02-09T08:46:11.838Z,67.32
2019-02-09T08:47:13.949Z,67.35
2019-02-09T08:48:11.813Z,68.03
2019-02-09T08:49:13.835Z,68.85
2019-02-09T08:50:11.791Z,69.13
2019-02-09T08:51:11.808Z,68.51
2019-02-09T08:52:11.770Z,67.90
2019-02-09T08:53:11.859Z,68.75
2019-02-09T08:54:11.746Z,67.66
2019-02-09T08:55:11.833Z,66.16
2019-02-09T08:56:11.732Z,65.18
2019-02-09T08:57:11.760Z,62.93
2019-02-09T08:58:11.711Z,64.73
2019-02-09T08:59:11.798Z,64.70
2019-02-09T09:00:11.701Z,63.34
2019-02-09T09:01:11.768Z,62.83
2019-02-09T09:02:11.666Z,64.86
2019-02-09T09:03:11.704Z,65.07
2019-02-09T09:04:11.651Z,63.57
2019-02-09T09:05:11.694Z,62.85
2019-02-09T09:06:11.613Z,63.03
2019-02-09T09:07:11.706Z,63.17
2019-02-09T09:08:11.619Z,63.26
2019-02-09T09:09:11.622Z,62.49
2019-02-09T09:10:11.593Z,62.11
2019-02-09T09:11:11.631Z,63.03
2019-02-09T09:12:11.550Z,63.13
2019-02-09T09:13:11.571Z,63.00
2019-02-09T09:14:11.523Z,62.18
2019-02-09T09:15:11.555Z,60.80
2019-02-09T09:16:11.511Z,60.19
2019-02-09T09:17:11.569Z,61.96
2019-02-09T09:18:11.495Z,64.79
2019-02-09T09:19:11.480Z,65.54
2019-02-09T09:20:11.477Z,66.46
2019-02-09T09:21:11.494Z,66.87
2019-02-09T09:22:11.443Z,66.39
2019-02-09T09:23:11.559Z,66.08
2019-02-09T09:24:11.418Z,66.28
2019-02-09T09:25:11.419Z,67.24
2019-02-09T09:26:11.391Z,65.77
2019-02-09T09:27:11.434Z,65.36
2019-02-09T09:28:11.387Z,65.30
2019-02-09T09:29:11.496Z,65.50
2019-02-09T09:30:11.346Z,65.57
2019-02-09T09:31:11.358Z,66.49
2019-02-09T09:32:11.325Z,65.91
2019-02-09T09:33:12.427Z,67.14
2019-02-09T09:34:11.306Z,66.52
2019-02-09T09:35:12.331Z,66.45
2019-02-09T09:36:11.286Z,66.93
2019-02-09T09:37:11.330Z,66.93
2019-02-09T09:38:11.272Z,66.42
2019-02-09T09:39:11.313Z,65.39
2019-02-09T09:40:11.249Z,66.31
2019-02-09T09:41:12.245Z,66.49
2019-02-09T09:42:11.212Z,65.64
2019-02-09T09:43:11.279Z,65.47
2019-02-09T09:44:11.196Z,65.98
2019-02-09T09:45:11.251Z,65.51
2019-02-09T09:46:11.193Z,65.12
2019-02-09T09:47:11.262Z,65.03
2019-02-09T09:48:11.159Z,64.10
2019-02-09T09:49:11.177Z,63.49
2019-02-09T09:50:11.129Z,65.33
2019-02-09T09:51:11.187Z,64.92
2019-02-09T09:52:11.141Z,63.96
2019-02-09T09:53:12.179Z,64.75
2019-02-09T09:54:11.080Z,65.16
2019-02-09T09:55:11.112Z,65.16
2019-02-09T09:56:11.076Z,65.36
2019-02-09T09:57:11.126Z,65.67
2019-02-09T09:58:11.138Z,65.60
2019-02-09T09:59:11.038Z,66.08
2019-02-09T10:00:11.042Z,65.29
2019-02-09T10:01:11.051Z,65.36
2019-02-09T10:02:10.999Z,65.47
2019-02-09T10:03:11.100Z,65.67
2019-02-09T10:04:10.996Z,65.16
2019-02-09T10:05:10.980Z,65.16
2019-02-09T10:06:10.948Z,65.36
2019-02-09T10:07:11.067Z,65.80
2019-02-09T10:08:10.937Z,65.60
2019-02-09T10:09:11.003Z,65.26
2019-02-09T10:10:10.911Z,65.09
2019-02-09T10:11:10.917Z,65.36
2019-02-09T10:12:10.882Z,65.47
2019-02-09T10:13:10.954Z,65.29
2019-02-09T10:14:10.867Z,65.39
2019-02-09T10:15:17.792Z,66.01
2019-02-09T10:16:10.842Z,65.39
2019-02-09T10:17:17.789Z,65.80
2019-02-09T10:18:10.848Z,64.06
2019-02-09T10:19:17.808Z,65.06
2019-02-09T10:20:10.800Z,65.09
2019-02-09T10:21:11.824Z,65.19
2019-02-09T10:22:10.768Z,65.39
2019-02-09T10:23:10.823Z,64.67
2019-02-09T10:24:10.764Z,65.19
2019-02-09T10:25:10.813Z,65.36
2019-02-09T10:26:10.825Z,65.36
2019-02-09T10:27:10.834Z,64.37
2019-02-09T10:28:10.754Z,64.67
2019-02-09T10:29:10.753Z,65.29
2019-02-09T10:30:10.685Z,65.39
2019-02-09T10:31:10.767Z,65.19
2019-02-09T10:32:10.661Z,65.19
2019-02-09T10:33:10.676Z,65.80
2019-02-09T10:34:10.699Z,65.50
2019-02-09T10:35:10.696Z,65.36
2019-02-09T10:36:10.614Z,65.16
2019-02-09T10:37:10.800Z,65.26
2019-02-09T10:38:10.590Z,65.47
2019-02-09T10:39:11.656Z,63.26
2019-02-09T10:40:10.568Z,62.33
2019-02-09T10:41:10.632Z,64.10
2019-02-09T10:42:10.561Z,64.64
2019-02-09T10:43:10.644Z,64.95
2019-02-09T10:44:10.547Z,65.47
2019-02-09T10:45:10.552Z,65.39
2019-02-09T10:46:10.501Z,65.50
2019-02-09T10:47:10.586Z,65.70
2019-02-09T10:48:10.482Z,65.47
2019-02-09T10:49:10.605Z,63.25
2019-02-09T10:50:10.467Z,62.19
2019-02-09T10:51:10.490Z,64.20
2019-02-09T10:52:10.441Z,65.26
2019-02-09T10:53:10.495Z,65.16
2019-02-09T10:54:10.427Z,65.57
2019-02-09T10:55:10.528Z,64.72
2019-02-09T10:56:10.401Z,63.43
2019-02-09T10:57:10.427Z,61.86
2019-02-09T10:58:10.382Z,61.55
2019-02-09T10:59:10.454Z,62.37
2019-02-09T11:00:10.351Z,63.02
2019-02-09T11:01:10.459Z,63.73
2019-02-09T11:02:10.325Z,63.35
2019-02-09T11:03:10.361Z,63.79
2019-02-09T11:04:10.313Z,63.35
2019-02-09T11:05:10.375Z,61.99
2019-02-09T11:06:10.292Z,63.02
2019-02-09T11:07:10.394Z,62.24
2019-02-09T11:08:10.259Z,57.91
2019-02-09T11:09:10.315Z,56.84
2019-02-09T11:10:10.235Z,58.65
2019-02-09T11:11:10.317Z,60.60
2019-02-09T11:12:10.221Z,58.60
2019-02-09T11:13:10.221Z,59.25
2019-02-09T11:14:10.211Z,61.58
2019-02-09T11:15:10.233Z,61.79
2019-02-09T11:16:10.171Z,61.79
2019-02-09T11:17:10.251Z,62.10
2019-02-09T11:18:10.154Z,62.10
2019-02-09T11:19:10.204Z,62.19
2019-02-09T11:20:10.132Z,62.19
2019-02-09T11:21:10.169Z,62.30
2019-02-09T11:22:10.103Z,61.71
2019-02-09T11:23:10.197Z,61.58
2019-02-09T11:24:10.102Z,61.58
2019-02-09T11:25:10.102Z,61.15
2019-02-09T11:26:10.058Z,60.06
2019-02-09T11:27:10.121Z,60.84
2019-02-09T11:28:10.040Z,61.15
2019-02-09T11:29:10.142Z,61.27
2019-02-09T11:30:10.062Z,61.38
2019-02-09T11:31:10.036Z,61.35
2019-02-09T11:32:09.992Z,61.15
2019-02-09T11:33:10.049Z,59.50
2019-02-09T11:34:09.996Z,60.50
2019-02-09T11:35:10.065Z,60.86
2019-02-09T11:36:09.955Z,61.18
2019-02-09T11:37:09.987Z,61.99
2019-02-09T11:38:09.939Z,62.43
2019-02-09T11:39:10.011Z,62.61
2019-02-09T11:40:09.912Z,61.88
2019-02-09T11:41:10.005Z,60.91
2019-02-09T11:42:09.885Z,61.35
2019-02-09T11:43:09.954Z,62.30
2019-02-09T11:44:09.865Z,63.29
2019-02-09T11:45:09.946Z,62.71
2019-02-09T11:46:09.845Z,62.61
2019-02-09T11:47:09.954Z,63.12
2019-02-09T11:48:09.829Z,63.12
2019-02-09T11:49:09.807Z,62.81
2019-02-09T11:50:09.840Z,62.61
2019-02-09T11:51:09.785Z,63.53
2019-02-09T11:52:09.777Z,63.02
2019-02-09T11:53:09.809Z,63.02
2019-02-09T11:54:09.799Z,63.53
2019-02-09T11:55:09.763Z,62.81
2019-02-09T11:56:09.723Z,63.35
2019-02-09T11:57:09.717Z,63.15
2019-02-09T11:58:09.715Z,62.92
2019-02-09T11:59:09.743Z,62.30
2019-02-09T12:00:09.699Z,62.10
2019-02-09T12:01:09.672Z,61.89
2019-02-09T12:02:09.678Z,62.61
2019-02-09T12:03:14.979Z,62.92
2019-02-09T12:04:10.638Z,62.81
2019-02-09T12:05:09.641Z,62.84
2019-02-09T12:06:09.631Z,62.74
2019-02-09T12:07:09.610Z,62.84
2019-02-09T12:08:09.596Z,62.43
2019-02-09T12:09:09.589Z,62.43
2019-02-09T12:10:09.591Z,62.95
2019-02-09T12:11:09.567Z,63.05
2019-02-09T12:12:09.554Z,62.33
2019-02-09T12:13:09.554Z,62.81
2019-02-09T12:14:09.528Z,61.61
2019-02-09T12:15:09.567Z,61.69
2019-02-09T12:16:09.513Z,61.27
2019-02-09T12:17:09.503Z,60.66
2019-02-09T12:18:09.495Z,61.27
2019-02-09T12:19:09.478Z,61.71
2019-02-09T12:20:09.475Z,61.58
2019-02-09T12:21:09.464Z,61.61
2019-02-09T12:22:09.449Z,61.41
2019-02-09T12:23:09.437Z,62.23
2019-02-09T12:24:09.417Z,62.43
2019-02-09T12:25:09.425Z,62.33
2019-02-09T12:26:09.421Z,63.15
2019-02-09T12:27:09.392Z,63.35
2019-02-09T12:28:09.385Z,63.25
2019-02-09T12:29:09.378Z,65.54
2019-02-09T12:30:09.399Z,67.08
2019-02-09T12:31:09.348Z,69.26
2019-02-09T12:32:09.972Z,70.94
2019-02-09T12:33:09.338Z,69.70
2019-02-09T12:34:09.320Z,69.78
2019-02-09T12:35:09.316Z,68.54
2019-02-09T12:36:09.286Z,69.74
2019-02-09T12:37:09.277Z,67.79
2019-02-09T12:38:09.267Z,69.33
2019-02-09T12:39:09.257Z,67.18
2019-02-09T12:40:09.247Z,65.71
2019-02-09T12:41:09.263Z,65.61
2019-02-09T12:42:09.218Z,65.92
2019-02-09T12:43:09.211Z,65.10
2019-02-09T12:44:09.198Z,64.28
2019-02-09T12:45:09.191Z,63.87
2019-02-09T12:46:09.187Z,63.76
2019-02-09T12:47:09.179Z,63.66
2019-02-09T12:48:09.153Z,63.12
2019-02-09T12:49:09.159Z,62.84
2019-02-09T12:50:09.125Z,62.71
2019-02-09T12:51:09.133Z,63.76
2019-02-09T12:52:09.104Z,64.17
2019-02-09T12:53:09.102Z,65.03